<?xml version="1.0" encoding="UTF-8" standalone="no" ?>
<gpx xmlns="http://www.topografix.com/GPX/1/1" xmlns:xsi="http://www.w3.org/2001/XMLSchema-instance" xsi:schemaLocation="http://www.topografix.com/GPX/1/1 http://www.topografix.com/GPX/1/1/gpx.xsd" version="1.1" creator="VisuGPX - https://www.visugpx.com">
  <metadata>
    <name>Cirque de Saint-Même</name>
    <desc><![CDATA[Cirque de Saint-Même - Grotte du Guiers]]></desc>
  </metadata>
  <trk>
    <name><![CDATA[2016-07-10 09:04]]></name>
    <desc><![CDATA[<p>Heure de départ: 07/10/2016 09:04</p><p>Heure d'arrivée: 07/10/2016 10:54</p><p>Distance: 5,4 km (01:49)</p><p>Temps déplacement: 00:51</p><p>Vitesse moyenne: 2,97 km/h</p><p>Vitesse moyenne mouv.: 6,29 km/h</p><p>Vitesse Max.: 47,27km/h</p><p>Altitude minimale: 766 m</p><p>Altitude maximale: 1386 m</p><p>Vitesse de montée: 681,4 m/h</p><p>Vitesse de descente: -579,6 m/h</p><p>Gain d'altitude: 508 m</p><p>Perte d'altitude: -593 m</p><p>Temps de montée: 00:44</p><p>Temps de descente: 01:01</p><hr align="center" width="480" style="height: 2px; width: 517px"/>]]></desc>
    <trkseg>
      <trkpt lat="45.40076" lon="5.89049">
        <ele>834.88</ele>
        <time>2016-07-10T07:04:51Z</time>
      </trkpt>
      <trkpt lat="45.40075" lon="5.89076">
        <ele>847.87</ele>
        <time>2016-07-10T07:06:15Z</time>
      </trkpt>
      <trkpt lat="45.40057" lon="5.89084">
        <ele>845.93</ele>
        <time>2016-07-10T07:06:28Z</time>
      </trkpt>
      <trkpt lat="45.40038" lon="5.89085">
        <ele>850.88</ele>
        <time>2016-07-10T07:06:42Z</time>
      </trkpt>
      <trkpt lat="45.40016" lon="5.89081">
        <ele>856.71</ele>
        <time>2016-07-10T07:06:58Z</time>
      </trkpt>
      <trkpt lat="45.40003" lon="5.89099">
        <ele>858.84</ele>
        <time>2016-07-10T07:07:07Z</time>
      </trkpt>
      <trkpt lat="45.39986" lon="5.89107">
        <ele>864.64</ele>
        <time>2016-07-10T07:07:22Z</time>
      </trkpt>
      <trkpt lat="45.39969" lon="5.89119">
        <ele>862.82</ele>
        <time>2016-07-10T07:07:37Z</time>
      </trkpt>
      <trkpt lat="45.39975" lon="5.89146">
        <ele>859.23</ele>
        <time>2016-07-10T07:07:40Z</time>
      </trkpt>
      <trkpt lat="45.39958" lon="5.89136">
        <ele>850.43</ele>
        <time>2016-07-10T07:07:50Z</time>
      </trkpt>
      <trkpt lat="45.3994" lon="5.89139">
        <ele>851.8</ele>
        <time>2016-07-10T07:08:05Z</time>
      </trkpt>
      <trkpt lat="45.39922" lon="5.89142">
        <ele>856.88</ele>
        <time>2016-07-10T07:08:17Z</time>
      </trkpt>
      <trkpt lat="45.39907" lon="5.89159">
        <ele>856.78</ele>
        <time>2016-07-10T07:08:30Z</time>
      </trkpt>
      <trkpt lat="45.39887" lon="5.89158">
        <ele>856.08</ele>
        <time>2016-07-10T07:08:48Z</time>
      </trkpt>
      <trkpt lat="45.3987" lon="5.89172">
        <ele>862.66</ele>
        <time>2016-07-10T07:09:01Z</time>
      </trkpt>
      <trkpt lat="45.39855" lon="5.89186">
        <ele>871.13</ele>
        <time>2016-07-10T07:09:28Z</time>
      </trkpt>
      <trkpt lat="45.39837" lon="5.89201">
        <ele>871.84</ele>
        <time>2016-07-10T07:09:39Z</time>
      </trkpt>
      <trkpt lat="45.3982" lon="5.8921">
        <ele>873.88</ele>
        <time>2016-07-10T07:09:52Z</time>
      </trkpt>
      <trkpt lat="45.39799" lon="5.89203">
        <ele>868.92</ele>
        <time>2016-07-10T07:10:10Z</time>
      </trkpt>
      <trkpt lat="45.39778" lon="5.89187">
        <ele>864.48</ele>
        <time>2016-07-10T07:10:17Z</time>
      </trkpt>
      <trkpt lat="45.3976" lon="5.89189">
        <ele>866.85</ele>
        <time>2016-07-10T07:10:41Z</time>
      </trkpt>
      <trkpt lat="45.39742" lon="5.89183">
        <ele>866.24</ele>
        <time>2016-07-10T07:10:58Z</time>
      </trkpt>
      <trkpt lat="45.39724" lon="5.89184">
        <ele>864.67</ele>
        <time>2016-07-10T07:11:14Z</time>
      </trkpt>
      <trkpt lat="45.39706" lon="5.89191">
        <ele>870.44</ele>
        <time>2016-07-10T07:11:29Z</time>
      </trkpt>
      <trkpt lat="45.39688" lon="5.89181">
        <ele>874.88</ele>
        <time>2016-07-10T07:11:44Z</time>
      </trkpt>
      <trkpt lat="45.39671" lon="5.89168">
        <ele>879.07</ele>
        <time>2016-07-10T07:11:58Z</time>
      </trkpt>
      <trkpt lat="45.39655" lon="5.89155">
        <ele>879.64</ele>
        <time>2016-07-10T07:12:12Z</time>
      </trkpt>
      <trkpt lat="45.39637" lon="5.89146">
        <ele>881.72</ele>
        <time>2016-07-10T07:12:26Z</time>
      </trkpt>
      <trkpt lat="45.39619" lon="5.89151">
        <ele>881.86</ele>
        <time>2016-07-10T07:12:43Z</time>
      </trkpt>
      <trkpt lat="45.39605" lon="5.89177">
        <ele>889.71</ele>
        <time>2016-07-10T07:12:52Z</time>
      </trkpt>
      <trkpt lat="45.39587" lon="5.89174">
        <ele>889.64</ele>
        <time>2016-07-10T07:13:22Z</time>
      </trkpt>
      <trkpt lat="45.39569" lon="5.89177">
        <ele>896.85</ele>
        <time>2016-07-10T07:13:53Z</time>
      </trkpt>
      <trkpt lat="45.39577" lon="5.89202">
        <ele>891.11</ele>
        <time>2016-07-10T07:15:24Z</time>
      </trkpt>
      <trkpt lat="45.39572" lon="5.8924">
        <ele>899.12</ele>
        <time>2016-07-10T07:15:47Z</time>
      </trkpt>
      <trkpt lat="45.39557" lon="5.89226">
        <ele>913.59</ele>
        <time>2016-07-10T07:16:01Z</time>
      </trkpt>
      <trkpt lat="45.39547" lon="5.89248">
        <ele>914.83</ele>
        <time>2016-07-10T07:17:27Z</time>
      </trkpt>
      <trkpt lat="45.39529" lon="5.89251">
        <ele>924</ele>
        <time>2016-07-10T07:17:57Z</time>
      </trkpt>
      <trkpt lat="45.39513" lon="5.89237">
        <ele>929.08</ele>
        <time>2016-07-10T07:18:24Z</time>
      </trkpt>
      <trkpt lat="45.39527" lon="5.89254">
        <ele>934.83</ele>
        <time>2016-07-10T07:20:04Z</time>
      </trkpt>
      <trkpt lat="45.39509" lon="5.89262">
        <ele>935.64</ele>
        <time>2016-07-10T07:20:19Z</time>
      </trkpt>
      <trkpt lat="45.39519" lon="5.89284">
        <ele>944.72</ele>
        <time>2016-07-10T07:21:07Z</time>
      </trkpt>
      <trkpt lat="45.39503" lon="5.893">
        <ele>949.83</ele>
        <time>2016-07-10T07:22:00Z</time>
      </trkpt>
      <trkpt lat="45.39494" lon="5.89323">
        <ele>974.04</ele>
        <time>2016-07-10T07:23:58Z</time>
      </trkpt>
      <trkpt lat="45.39478" lon="5.89337">
        <ele>977.87</ele>
        <time>2016-07-10T07:24:19Z</time>
      </trkpt>
      <trkpt lat="45.3946" lon="5.8934">
        <ele>988.84</ele>
        <time>2016-07-10T07:24:55Z</time>
      </trkpt>
      <trkpt lat="45.39441" lon="5.89338">
        <ele>989.6</ele>
        <time>2016-07-10T07:25:31Z</time>
      </trkpt>
      <trkpt lat="45.39421" lon="5.89322">
        <ele>973.84</ele>
        <time>2016-07-10T07:25:54Z</time>
      </trkpt>
      <trkpt lat="45.39407" lon="5.89339">
        <ele>978.71</ele>
        <time>2016-07-10T07:26:00Z</time>
      </trkpt>
      <trkpt lat="45.39393" lon="5.89321">
        <ele>992.86</ele>
        <time>2016-07-10T07:26:28Z</time>
      </trkpt>
      <trkpt lat="45.39376" lon="5.89308">
        <ele>994.27</ele>
        <time>2016-07-10T07:26:46Z</time>
      </trkpt>
      <trkpt lat="45.39352" lon="5.89326">
        <ele>992.88</ele>
        <time>2016-07-10T07:26:56Z</time>
      </trkpt>
      <trkpt lat="45.39348" lon="5.89301">
        <ele>991.83</ele>
        <time>2016-07-10T07:27:25Z</time>
      </trkpt>
      <trkpt lat="45.39329" lon="5.89294">
        <ele>1004.15</ele>
        <time>2016-07-10T07:27:47Z</time>
      </trkpt>
      <trkpt lat="45.39314" lon="5.89281">
        <ele>1010.88</ele>
        <time>2016-07-10T07:28:19Z</time>
      </trkpt>
      <trkpt lat="45.39298" lon="5.89295">
        <ele>1003.28</ele>
        <time>2016-07-10T07:28:36Z</time>
      </trkpt>
      <trkpt lat="45.39279" lon="5.89286">
        <ele>1013.67</ele>
        <time>2016-07-10T07:30:03Z</time>
      </trkpt>
      <trkpt lat="45.39266" lon="5.89265">
        <ele>1034.88</ele>
        <time>2016-07-10T07:31:26Z</time>
      </trkpt>
      <trkpt lat="45.39248" lon="5.89265">
        <ele>1037.6</ele>
        <time>2016-07-10T07:31:32Z</time>
      </trkpt>
      <trkpt lat="45.39234" lon="5.89249">
        <ele>1040.52</ele>
        <time>2016-07-10T07:32:21Z</time>
      </trkpt>
      <trkpt lat="45.39215" lon="5.89235">
        <ele>1055.08</ele>
        <time>2016-07-10T07:33:56Z</time>
      </trkpt>
      <trkpt lat="45.39189" lon="5.89245">
        <ele>1058.02</ele>
        <time>2016-07-10T07:33:59Z</time>
      </trkpt>
      <trkpt lat="45.39169" lon="5.89236">
        <ele>1057.08</ele>
        <time>2016-07-10T07:34:01Z</time>
      </trkpt>
      <trkpt lat="45.39154" lon="5.89223">
        <ele>1061.88</ele>
        <time>2016-07-10T07:35:19Z</time>
      </trkpt>
      <trkpt lat="45.39136" lon="5.89209">
        <ele>1066.84</ele>
        <time>2016-07-10T07:36:06Z</time>
      </trkpt>
      <trkpt lat="45.39121" lon="5.89196">
        <ele>1075.88</ele>
        <time>2016-07-10T07:39:18Z</time>
      </trkpt>
      <trkpt lat="45.39105" lon="5.89181">
        <ele>1082.08</ele>
        <time>2016-07-10T07:40:00Z</time>
      </trkpt>
      <trkpt lat="45.39086" lon="5.89186">
        <ele>1095.83</ele>
        <time>2016-07-10T07:41:37Z</time>
      </trkpt>
      <trkpt lat="45.3914" lon="5.89093">
        <ele>1314.88</ele>
        <time>2016-07-10T07:52:02Z</time>
      </trkpt>
      <trkpt lat="45.39161" lon="5.89105">
        <ele>1386.08</ele>
        <time>2016-07-10T07:52:11Z</time>
      </trkpt>
      <trkpt lat="45.3916" lon="5.89135">
        <ele>1376.68</ele>
        <time>2016-07-10T07:52:15Z</time>
      </trkpt>
      <trkpt lat="45.39185" lon="5.89138">
        <ele>1375.27</ele>
        <time>2016-07-10T07:52:17Z</time>
      </trkpt>
      <trkpt lat="45.39121" lon="5.89153">
        <ele>1338.96</ele>
        <time>2016-07-10T07:52:18Z</time>
      </trkpt>
      <trkpt lat="45.391" lon="5.89159">
        <ele>1308.03</ele>
        <time>2016-07-10T07:52:21Z</time>
      </trkpt>
      <trkpt lat="45.39082" lon="5.89163">
        <ele>1276.43</ele>
        <time>2016-07-10T07:52:29Z</time>
      </trkpt>
      <trkpt lat="45.39014" lon="5.89168">
        <ele>1186.3</ele>
        <time>2016-07-10T07:52:31Z</time>
      </trkpt>
      <trkpt lat="45.39031" lon="5.89159">
        <ele>1160.61</ele>
        <time>2016-07-10T07:52:33Z</time>
      </trkpt>
      <trkpt lat="45.39041" lon="5.89133">
        <ele>1147.93</ele>
        <time>2016-07-10T07:52:44Z</time>
      </trkpt>
      <trkpt lat="45.39022" lon="5.89129">
        <ele>1142.46</ele>
        <time>2016-07-10T07:53:08Z</time>
      </trkpt>
      <trkpt lat="45.39003" lon="5.89136">
        <ele>1134.08</ele>
        <time>2016-07-10T07:53:30Z</time>
      </trkpt>
      <trkpt lat="45.38985" lon="5.89129">
        <ele>1116.48</ele>
        <time>2016-07-10T07:54:21Z</time>
      </trkpt>
      <trkpt lat="45.38965" lon="5.89128">
        <ele>1106.88</ele>
        <time>2016-07-10T07:54:54Z</time>
      </trkpt>
      <trkpt lat="45.3901" lon="5.8912">
        <ele>1132.04</ele>
        <time>2016-07-10T08:14:04Z</time>
      </trkpt>
      <trkpt lat="45.39028" lon="5.89124">
        <ele>1140.83</ele>
        <time>2016-07-10T08:14:41Z</time>
      </trkpt>
      <trkpt lat="45.39044" lon="5.89141">
        <ele>1156.88</ele>
        <time>2016-07-10T08:15:26Z</time>
      </trkpt>
      <trkpt lat="45.39042" lon="5.89169">
        <ele>1165.89</ele>
        <time>2016-07-10T08:16:04Z</time>
      </trkpt>
      <trkpt lat="45.39055" lon="5.89191">
        <ele>1159.24</ele>
        <time>2016-07-10T08:17:23Z</time>
      </trkpt>
      <trkpt lat="45.39071" lon="5.89213">
        <ele>1161.66</ele>
        <time>2016-07-10T08:17:26Z</time>
      </trkpt>
      <trkpt lat="45.39078" lon="5.89237">
        <ele>1153.63</ele>
        <time>2016-07-10T08:18:26Z</time>
      </trkpt>
      <trkpt lat="45.39094" lon="5.89254">
        <ele>1154.89</ele>
        <time>2016-07-10T08:18:42Z</time>
      </trkpt>
      <trkpt lat="45.39103" lon="5.89277">
        <ele>1154.84</ele>
        <time>2016-07-10T08:19:01Z</time>
      </trkpt>
      <trkpt lat="45.3911" lon="5.89301">
        <ele>1157.64</ele>
        <time>2016-07-10T08:19:15Z</time>
      </trkpt>
      <trkpt lat="45.39125" lon="5.89321">
        <ele>1160.88</ele>
        <time>2016-07-10T08:19:48Z</time>
      </trkpt>
      <trkpt lat="45.39139" lon="5.8934">
        <ele>1153.06</ele>
        <time>2016-07-10T08:19:57Z</time>
      </trkpt>
      <trkpt lat="45.39156" lon="5.89352">
        <ele>1148.64</ele>
        <time>2016-07-10T08:20:13Z</time>
      </trkpt>
      <trkpt lat="45.39171" lon="5.89366">
        <ele>1138.65</ele>
        <time>2016-07-10T08:20:35Z</time>
      </trkpt>
      <trkpt lat="45.39169" lon="5.8934">
        <ele>1133.09</ele>
        <time>2016-07-10T08:20:57Z</time>
      </trkpt>
      <trkpt lat="45.39152" lon="5.89327">
        <ele>1123.09</ele>
        <time>2016-07-10T08:21:19Z</time>
      </trkpt>
      <trkpt lat="45.3915" lon="5.89298">
        <ele>1125.72</ele>
        <time>2016-07-10T08:22:09Z</time>
      </trkpt>
      <trkpt lat="45.39137" lon="5.89277">
        <ele>1118.88</ele>
        <time>2016-07-10T08:22:24Z</time>
      </trkpt>
      <trkpt lat="45.39172" lon="5.8926">
        <ele>1122.28</ele>
        <time>2016-07-10T08:23:18Z</time>
      </trkpt>
      <trkpt lat="45.39187" lon="5.89244">
        <ele>1075.93</ele>
        <time>2016-07-10T08:25:07Z</time>
      </trkpt>
      <trkpt lat="45.39184" lon="5.89218">
        <ele>1081.6</ele>
        <time>2016-07-10T08:25:27Z</time>
      </trkpt>
      <trkpt lat="45.39201" lon="5.89229">
        <ele>1071.24</ele>
        <time>2016-07-10T08:25:55Z</time>
      </trkpt>
      <trkpt lat="45.3922" lon="5.89233">
        <ele>1062.89</ele>
        <time>2016-07-10T08:26:16Z</time>
      </trkpt>
      <trkpt lat="45.39214" lon="5.89207">
        <ele>1058.08</ele>
        <time>2016-07-10T08:26:52Z</time>
      </trkpt>
      <trkpt lat="45.39203" lon="5.89186">
        <ele>1053.12</ele>
        <time>2016-07-10T08:27:03Z</time>
      </trkpt>
      <trkpt lat="45.39192" lon="5.89167">
        <ele>1049.85</ele>
        <time>2016-07-10T08:27:19Z</time>
      </trkpt>
      <trkpt lat="45.3918" lon="5.89147">
        <ele>1026.09</ele>
        <time>2016-07-10T08:28:10Z</time>
      </trkpt>
      <trkpt lat="45.39188" lon="5.89121">
        <ele>1022.81</ele>
        <time>2016-07-10T08:28:56Z</time>
      </trkpt>
      <trkpt lat="45.39202" lon="5.89098">
        <ele>1026.67</ele>
        <time>2016-07-10T08:29:01Z</time>
      </trkpt>
      <trkpt lat="45.39186" lon="5.89117">
        <ele>1031.48</ele>
        <time>2016-07-10T08:29:23Z</time>
      </trkpt>
      <trkpt lat="45.39195" lon="5.8909">
        <ele>1036.6</ele>
        <time>2016-07-10T08:32:03Z</time>
      </trkpt>
      <trkpt lat="45.39211" lon="5.89106">
        <ele>1035.46</ele>
        <time>2016-07-10T08:33:32Z</time>
      </trkpt>
      <trkpt lat="45.39224" lon="5.89088">
        <ele>1029.01</ele>
        <time>2016-07-10T08:34:28Z</time>
      </trkpt>
      <trkpt lat="45.39233" lon="5.89063">
        <ele>1015.38</ele>
        <time>2016-07-10T08:34:33Z</time>
      </trkpt>
      <trkpt lat="45.39248" lon="5.89048">
        <ele>1011.05</ele>
        <time>2016-07-10T08:34:52Z</time>
      </trkpt>
      <trkpt lat="45.39267" lon="5.89041">
        <ele>1012.67</ele>
        <time>2016-07-10T08:35:00Z</time>
      </trkpt>
      <trkpt lat="45.39286" lon="5.89037">
        <ele>1012.08</ele>
        <time>2016-07-10T08:35:36Z</time>
      </trkpt>
      <trkpt lat="45.39305" lon="5.89032">
        <ele>1008.8</ele>
        <time>2016-07-10T08:35:47Z</time>
      </trkpt>
      <trkpt lat="45.39324" lon="5.89027">
        <ele>1004.68</ele>
        <time>2016-07-10T08:36:00Z</time>
      </trkpt>
      <trkpt lat="45.39341" lon="5.8902">
        <ele>1003.88</ele>
        <time>2016-07-10T08:36:15Z</time>
      </trkpt>
      <trkpt lat="45.39356" lon="5.89005">
        <ele>1000.67</ele>
        <time>2016-07-10T08:36:34Z</time>
      </trkpt>
      <trkpt lat="45.39374" lon="5.88994">
        <ele>1000.68</ele>
        <time>2016-07-10T08:36:44Z</time>
      </trkpt>
      <trkpt lat="45.39394" lon="5.88986">
        <ele>1003.05</ele>
        <time>2016-07-10T08:36:51Z</time>
      </trkpt>
      <trkpt lat="45.39402" lon="5.8901">
        <ele>989.88</ele>
        <time>2016-07-10T08:37:44Z</time>
      </trkpt>
      <trkpt lat="45.39427" lon="5.89007">
        <ele>988.44</ele>
        <time>2016-07-10T08:37:59Z</time>
      </trkpt>
      <trkpt lat="45.39447" lon="5.88999">
        <ele>987.51</ele>
        <time>2016-07-10T08:38:05Z</time>
      </trkpt>
      <trkpt lat="45.39453" lon="5.88974">
        <ele>974.73</ele>
        <time>2016-07-10T08:38:16Z</time>
      </trkpt>
      <trkpt lat="45.39454" lon="5.88948">
        <ele>967.08</ele>
        <time>2016-07-10T08:38:29Z</time>
      </trkpt>
      <trkpt lat="45.39458" lon="5.88922">
        <ele>967.88</ele>
        <time>2016-07-10T08:38:36Z</time>
      </trkpt>
      <trkpt lat="45.39454" lon="5.88897">
        <ele>963.73</ele>
        <time>2016-07-10T08:38:47Z</time>
      </trkpt>
      <trkpt lat="45.39462" lon="5.88873">
        <ele>958.72</ele>
        <time>2016-07-10T08:39:00Z</time>
      </trkpt>
      <trkpt lat="45.39481" lon="5.88869">
        <ele>955.9</ele>
        <time>2016-07-10T08:39:11Z</time>
      </trkpt>
      <trkpt lat="45.39494" lon="5.88851">
        <ele>950.68</ele>
        <time>2016-07-10T08:39:36Z</time>
      </trkpt>
      <trkpt lat="45.39515" lon="5.88848">
        <ele>952.45</ele>
        <time>2016-07-10T08:39:52Z</time>
      </trkpt>
      <trkpt lat="45.39535" lon="5.8884">
        <ele>954.46</ele>
        <time>2016-07-10T08:39:54Z</time>
      </trkpt>
      <trkpt lat="45.39556" lon="5.88849">
        <ele>955.07</ele>
        <time>2016-07-10T08:40:06Z</time>
      </trkpt>
      <trkpt lat="45.39576" lon="5.88855">
        <ele>952.08</ele>
        <time>2016-07-10T08:40:17Z</time>
      </trkpt>
      <trkpt lat="45.39593" lon="5.88845">
        <ele>945.88</ele>
        <time>2016-07-10T08:40:34Z</time>
      </trkpt>
      <trkpt lat="45.3961" lon="5.88834">
        <ele>938.73</ele>
        <time>2016-07-10T08:40:49Z</time>
      </trkpt>
      <trkpt lat="45.39629" lon="5.88824">
        <ele>932.29</ele>
        <time>2016-07-10T08:41:04Z</time>
      </trkpt>
      <trkpt lat="45.39631" lon="5.88798">
        <ele>932.79</ele>
        <time>2016-07-10T08:41:18Z</time>
      </trkpt>
      <trkpt lat="45.39649" lon="5.88797">
        <ele>927.64</ele>
        <time>2016-07-10T08:41:31Z</time>
      </trkpt>
      <trkpt lat="45.39665" lon="5.88784">
        <ele>932.62</ele>
        <time>2016-07-10T08:41:47Z</time>
      </trkpt>
      <trkpt lat="45.39684" lon="5.88776">
        <ele>930.03</ele>
        <time>2016-07-10T08:41:58Z</time>
      </trkpt>
      <trkpt lat="45.39704" lon="5.8877">
        <ele>929.67</ele>
        <time>2016-07-10T08:42:12Z</time>
      </trkpt>
      <trkpt lat="45.39721" lon="5.88779">
        <ele>926.05</ele>
        <time>2016-07-10T08:42:23Z</time>
      </trkpt>
      <trkpt lat="45.39742" lon="5.8878">
        <ele>924.84</ele>
        <time>2016-07-10T08:42:33Z</time>
      </trkpt>
      <trkpt lat="45.39768" lon="5.88799">
        <ele>916.27</ele>
        <time>2016-07-10T08:43:00Z</time>
      </trkpt>
      <trkpt lat="45.39784" lon="5.88812">
        <ele>909.26</ele>
        <time>2016-07-10T08:43:29Z</time>
      </trkpt>
      <trkpt lat="45.39801" lon="5.88823">
        <ele>901.93</ele>
        <time>2016-07-10T08:43:35Z</time>
      </trkpt>
      <trkpt lat="45.3982" lon="5.88829">
        <ele>893.91</ele>
        <time>2016-07-10T08:43:47Z</time>
      </trkpt>
      <trkpt lat="45.39838" lon="5.88819">
        <ele>897.87</ele>
        <time>2016-07-10T08:44:02Z</time>
      </trkpt>
      <trkpt lat="45.39861" lon="5.88818">
        <ele>892.47</ele>
        <time>2016-07-10T08:44:09Z</time>
      </trkpt>
      <trkpt lat="45.39871" lon="5.88844">
        <ele>884.09</ele>
        <time>2016-07-10T08:44:27Z</time>
      </trkpt>
      <trkpt lat="45.39857" lon="5.88866">
        <ele>881.92</ele>
        <time>2016-07-10T08:44:39Z</time>
      </trkpt>
      <trkpt lat="45.39864" lon="5.8889">
        <ele>879.92</ele>
        <time>2016-07-10T08:44:44Z</time>
      </trkpt>
      <trkpt lat="45.39846" lon="5.889">
        <ele>881.68</ele>
        <time>2016-07-10T08:44:56Z</time>
      </trkpt>
      <trkpt lat="45.39852" lon="5.88928">
        <ele>882.2</ele>
        <time>2016-07-10T08:45:05Z</time>
      </trkpt>
      <trkpt lat="45.39844" lon="5.88953">
        <ele>877.95</ele>
        <time>2016-07-10T08:45:20Z</time>
      </trkpt>
      <trkpt lat="45.39845" lon="5.88984">
        <ele>873.93</ele>
        <time>2016-07-10T08:45:30Z</time>
      </trkpt>
      <trkpt lat="45.3985" lon="5.89008">
        <ele>871.87</ele>
        <time>2016-07-10T08:45:43Z</time>
      </trkpt>
      <trkpt lat="45.39857" lon="5.89033">
        <ele>861.08</ele>
        <time>2016-07-10T08:45:59Z</time>
      </trkpt>
      <trkpt lat="45.3987" lon="5.89054">
        <ele>855.09</ele>
        <time>2016-07-10T08:46:11Z</time>
      </trkpt>
      <trkpt lat="45.3989" lon="5.89051">
        <ele>853.84</ele>
        <time>2016-07-10T08:46:24Z</time>
      </trkpt>
      <trkpt lat="45.39908" lon="5.89056">
        <ele>853.72</ele>
        <time>2016-07-10T08:46:27Z</time>
      </trkpt>
      <trkpt lat="45.39916" lon="5.8908">
        <ele>853.23</ele>
        <time>2016-07-10T08:46:29Z</time>
      </trkpt>
      <trkpt lat="45.39931" lon="5.89062">
        <ele>856.65</ele>
        <time>2016-07-10T08:46:59Z</time>
      </trkpt>
      <trkpt lat="45.39951" lon="5.89071">
        <ele>855.9</ele>
        <time>2016-07-10T08:47:10Z</time>
      </trkpt>
      <trkpt lat="45.3997" lon="5.89067">
        <ele>855.72</ele>
        <time>2016-07-10T08:47:27Z</time>
      </trkpt>
      <trkpt lat="45.39986" lon="5.8909">
        <ele>848.32</ele>
        <time>2016-07-10T08:47:59Z</time>
      </trkpt>
      <trkpt lat="45.39998" lon="5.89115">
        <ele>841.65</ele>
        <time>2016-07-10T08:48:03Z</time>
      </trkpt>
      <trkpt lat="45.40015" lon="5.89106">
        <ele>839.17</ele>
        <time>2016-07-10T08:48:23Z</time>
      </trkpt>
      <trkpt lat="45.4003" lon="5.89091">
        <ele>836.43</ele>
        <time>2016-07-10T08:48:38Z</time>
      </trkpt>
      <trkpt lat="45.40048" lon="5.89085">
        <ele>840.66</ele>
        <time>2016-07-10T08:48:53Z</time>
      </trkpt>
      <trkpt lat="45.40066" lon="5.89079">
        <ele>843.65</ele>
        <time>2016-07-10T08:49:06Z</time>
      </trkpt>
      <trkpt lat="45.40078" lon="5.8906">
        <ele>844.01</ele>
        <time>2016-07-10T08:49:20Z</time>
      </trkpt>
      <trkpt lat="45.401" lon="5.89068">
        <ele>836.36</ele>
        <time>2016-07-10T08:51:13Z</time>
      </trkpt>
      <trkpt lat="45.40123" lon="5.89072">
        <ele>833.7</ele>
        <time>2016-07-10T08:51:17Z</time>
      </trkpt>
      <trkpt lat="45.4015" lon="5.89069">
        <ele>835.19</ele>
        <time>2016-07-10T08:51:20Z</time>
      </trkpt>
      <trkpt lat="45.40171" lon="5.89057">
        <ele>837.41</ele>
        <time>2016-07-10T08:51:23Z</time>
      </trkpt>
      <trkpt lat="45.40188" lon="5.89034">
        <ele>840.59</ele>
        <time>2016-07-10T08:51:26Z</time>
      </trkpt>
      <trkpt lat="45.40202" lon="5.89007">
        <ele>842.64</ele>
        <time>2016-07-10T08:51:29Z</time>
      </trkpt>
      <trkpt lat="45.40223" lon="5.88982">
        <ele>840.92</ele>
        <time>2016-07-10T08:51:32Z</time>
      </trkpt>
      <trkpt lat="45.40238" lon="5.88965">
        <ele>839.92</ele>
        <time>2016-07-10T08:51:34Z</time>
      </trkpt>
      <trkpt lat="45.40255" lon="5.88951">
        <ele>840.84</ele>
        <time>2016-07-10T08:51:36Z</time>
      </trkpt>
      <trkpt lat="45.40275" lon="5.88939">
        <ele>842.64</ele>
        <time>2016-07-10T08:51:38Z</time>
      </trkpt>
      <trkpt lat="45.40292" lon="5.88925">
        <ele>842.07</ele>
        <time>2016-07-10T08:51:40Z</time>
      </trkpt>
      <trkpt lat="45.40306" lon="5.88909">
        <ele>841.89</ele>
        <time>2016-07-10T08:51:42Z</time>
      </trkpt>
      <trkpt lat="45.40323" lon="5.88889">
        <ele>838.36</ele>
        <time>2016-07-10T08:51:44Z</time>
      </trkpt>
      <trkpt lat="45.4034" lon="5.8887">
        <ele>837.1</ele>
        <time>2016-07-10T08:51:46Z</time>
      </trkpt>
      <trkpt lat="45.40357" lon="5.88849">
        <ele>836.89</ele>
        <time>2016-07-10T08:51:48Z</time>
      </trkpt>
      <trkpt lat="45.40369" lon="5.88823">
        <ele>836.08</ele>
        <time>2016-07-10T08:51:50Z</time>
      </trkpt>
      <trkpt lat="45.4038" lon="5.88798">
        <ele>835.89</ele>
        <time>2016-07-10T08:51:52Z</time>
      </trkpt>
      <trkpt lat="45.40395" lon="5.88782">
        <ele>835.88</ele>
        <time>2016-07-10T08:51:54Z</time>
      </trkpt>
      <trkpt lat="45.40413" lon="5.88764">
        <ele>834.92</ele>
        <time>2016-07-10T08:51:57Z</time>
      </trkpt>
      <trkpt lat="45.40426" lon="5.88744">
        <ele>836.07</ele>
        <time>2016-07-10T08:52:02Z</time>
      </trkpt>
      <trkpt lat="45.40446" lon="5.88729">
        <ele>836.88</ele>
        <time>2016-07-10T08:52:06Z</time>
      </trkpt>
      <trkpt lat="45.40467" lon="5.88716">
        <ele>836.08</ele>
        <time>2016-07-10T08:52:10Z</time>
      </trkpt>
      <trkpt lat="45.4048" lon="5.88693">
        <ele>829.68</ele>
        <time>2016-07-10T08:52:34Z</time>
      </trkpt>
      <trkpt lat="45.40492" lon="5.88672">
        <ele>830.72</ele>
        <time>2016-07-10T08:52:38Z</time>
      </trkpt>
      <trkpt lat="45.40506" lon="5.88656">
        <ele>832.48</ele>
        <time>2016-07-10T08:52:41Z</time>
      </trkpt>
      <trkpt lat="45.40515" lon="5.88632">
        <ele>830.92</ele>
        <time>2016-07-10T08:52:44Z</time>
      </trkpt>
      <trkpt lat="45.40461" lon="5.88569">
        <ele>819.68</ele>
        <time>2016-07-10T08:53:00Z</time>
      </trkpt>
      <trkpt lat="45.4044" lon="5.88581">
        <ele>813.64</ele>
        <time>2016-07-10T08:53:03Z</time>
      </trkpt>
      <trkpt lat="45.40419" lon="5.88575">
        <ele>810.51</ele>
        <time>2016-07-10T08:53:05Z</time>
      </trkpt>
      <trkpt lat="45.40397" lon="5.88566">
        <ele>810.86</ele>
        <time>2016-07-10T08:53:07Z</time>
      </trkpt>
      <trkpt lat="45.40378" lon="5.88561">
        <ele>811.84</ele>
        <time>2016-07-10T08:53:09Z</time>
      </trkpt>
      <trkpt lat="45.40359" lon="5.88556">
        <ele>809.48</ele>
        <time>2016-07-10T08:53:11Z</time>
      </trkpt>
      <trkpt lat="45.40338" lon="5.88551">
        <ele>807.09</ele>
        <time>2016-07-10T08:53:14Z</time>
      </trkpt>
      <trkpt lat="45.40354" lon="5.88534">
        <ele>802.92</ele>
        <time>2016-07-10T08:53:19Z</time>
      </trkpt>
      <trkpt lat="45.40376" lon="5.88527">
        <ele>802.08</ele>
        <time>2016-07-10T08:53:22Z</time>
      </trkpt>
      <trkpt lat="45.40391" lon="5.88503">
        <ele>800.09</ele>
        <time>2016-07-10T08:53:25Z</time>
      </trkpt>
      <trkpt lat="45.40405" lon="5.88477">
        <ele>797.13</ele>
        <time>2016-07-10T08:53:28Z</time>
      </trkpt>
      <trkpt lat="45.40416" lon="5.88457">
        <ele>795.13</ele>
        <time>2016-07-10T08:53:30Z</time>
      </trkpt>
      <trkpt lat="45.40432" lon="5.88436">
        <ele>792.01</ele>
        <time>2016-07-10T08:53:32Z</time>
      </trkpt>
      <trkpt lat="45.4045" lon="5.8842">
        <ele>793.64</ele>
        <time>2016-07-10T08:53:34Z</time>
      </trkpt>
      <trkpt lat="45.40473" lon="5.8841">
        <ele>795.47</ele>
        <time>2016-07-10T08:53:36Z</time>
      </trkpt>
      <trkpt lat="45.40495" lon="5.88402">
        <ele>794.9</ele>
        <time>2016-07-10T08:53:38Z</time>
      </trkpt>
      <trkpt lat="45.40519" lon="5.88394">
        <ele>791.36</ele>
        <time>2016-07-10T08:53:40Z</time>
      </trkpt>
      <trkpt lat="45.40534" lon="5.88365">
        <ele>786.42</ele>
        <time>2016-07-10T08:53:42Z</time>
      </trkpt>
      <trkpt lat="45.40553" lon="5.88341">
        <ele>784.14</ele>
        <time>2016-07-10T08:53:44Z</time>
      </trkpt>
      <trkpt lat="45.4057" lon="5.88317">
        <ele>782.93</ele>
        <time>2016-07-10T08:53:46Z</time>
      </trkpt>
      <trkpt lat="45.40587" lon="5.88291">
        <ele>780.96</ele>
        <time>2016-07-10T08:53:48Z</time>
      </trkpt>
      <trkpt lat="45.40596" lon="5.88262">
        <ele>778.96</ele>
        <time>2016-07-10T08:53:50Z</time>
      </trkpt>
      <trkpt lat="45.40613" lon="5.88235">
        <ele>775.97</ele>
        <time>2016-07-10T08:53:53Z</time>
      </trkpt>
      <trkpt lat="45.40633" lon="5.88227">
        <ele>774.92</ele>
        <time>2016-07-10T08:53:55Z</time>
      </trkpt>
      <trkpt lat="45.40653" lon="5.88216">
        <ele>773.28</ele>
        <time>2016-07-10T08:53:57Z</time>
      </trkpt>
      <trkpt lat="45.4067" lon="5.88202">
        <ele>771.93</ele>
        <time>2016-07-10T08:53:59Z</time>
      </trkpt>
      <trkpt lat="45.40689" lon="5.88195">
        <ele>770.92</ele>
        <time>2016-07-10T08:54:01Z</time>
      </trkpt>
      <trkpt lat="45.40714" lon="5.88181">
        <ele>766.37</ele>
        <time>2016-07-10T08:54:04Z</time>
      </trkpt>
    </trkseg>
  </trk>
</gpx>